createdAt,value
2022-08-20T00:01:11.055Z,20.8
2022-08-20T00:11:11.362Z,20.8
2022-08-20T00:21:12.273Z,20.7
2022-08-20T00:31:12.989Z,20.6
2022-08-20T00:41:14.056Z,20.4
2022-08-20T00:51:14.497Z,20.2
2022-08-20T01:01:15.255Z,20.1
2022-08-20T01:11:15.609Z,20
2022-08-20T01:21:16.632Z,20
2022-08-20T01:31:16.854Z,19.9
2022-08-20T01:41:17.823Z,19.8
2022-08-20T01:51:18.868Z,19.6
2022-08-20T02:01:19.226Z,19.5
2022-08-20T02:11:20.223Z,19.4
2022-08-20T02:41:22.224Z,19.2
2022-08-20T02:51:28.665Z,19.2
2022-08-20T03:01:23.243Z,19.1
2022-08-20T03:11:23.420Z,19.1
2022-08-20T03:21:24.078Z,19.1
2022-08-20T03:31:25.132Z,19.1
2022-08-20T03:41:25.911Z,19.1
2022-08-20T03:51:26.475Z,19
2022-08-20T04:01:37.231Z,19
2022-08-20T04:11:27.797Z,19
2022-08-20T04:21:29.645Z,18.9
2022-08-20T04:41:29.613Z,18.7
2022-08-20T04:51:29.736Z,18.6
2022-08-20T05:01:30.329Z,18.6
2022-08-20T05:11:35.063Z,18.7
2022-08-20T05:21:31.257Z,18.7
2022-08-20T05:31:33.258Z,18.7
2022-08-20T05:41:32.123Z,18.8
2022-08-20T05:51:33.085Z,19
2022-08-20T06:01:34.158Z,19.2
2022-08-20T06:11:36.988Z,19.4
2022-08-20T06:31:35.919Z,19.7
2022-08-20T06:41:36.878Z,19.9
2022-08-20T06:51:37.172Z,20.2
2022-08-20T07:01:37.353Z,20.6
2022-08-20T07:21:39.231Z,20.7
2022-08-20T07:31:39.800Z,20.7
2022-08-20T07:41:40.100Z,20.7
2022-08-20T07:51:41.014Z,20.7
2022-08-20T08:01:41.662Z,20.6
2022-08-20T08:11:46.615Z,20.6
2022-08-20T08:21:42.462Z,21.1
2022-08-20T08:31:43.549Z,21.7
2022-08-20T08:51:44.436Z,21.4
2022-08-20T09:01:53.565Z,21.3
2022-08-20T09:41:47.499Z,22.8
2022-08-20T10:01:54.245Z,23.4
2022-08-20T10:11:55.242Z,23.7
2022-08-20T10:21:55.518Z,23.8
2022-08-20T10:31:55.985Z,23.7
2022-08-20T10:41:56.167Z,23.8
2022-08-20T10:51:56.414Z,23.6
2022-08-20T11:01:56.833Z,24
2022-08-20T11:11:57.592Z,23.5
2022-08-20T11:21:58.394Z,22.5
2022-08-20T11:31:58.598Z,22.5
2022-08-20T11:41:59.579Z,23.4
2022-08-20T11:51:59.956Z,24.1
2022-08-20T12:02:02.585Z,24.5
2022-08-20T12:12:00.226Z,24
2022-08-20T12:22:01.130Z,23.9
2022-08-20T12:32:01.834Z,24
2022-08-20T12:42:02.890Z,24.9
2022-08-20T12:52:03.243Z,25.1
2022-08-20T13:02:13.868Z,24.8
2022-08-20T13:12:04.157Z,24.2
2022-08-20T13:22:04.673Z,24
2022-08-20T13:32:05.229Z,24.4
2022-08-20T13:42:06.127Z,25
2022-08-20T13:52:06.926Z,25.3
2022-08-20T14:02:07.907Z,24.9
2022-08-20T14:12:08.521Z,26
2022-08-20T14:22:08.736Z,26.8
2022-08-20T14:32:09.690Z,28
2022-08-20T14:42:10.514Z,28.1
2022-08-20T14:52:11.107Z,26.4
2022-08-20T15:02:12.081Z,26.8
2022-08-20T15:12:13.173Z,26.8
2022-08-20T15:22:14.029Z,26.7
2022-08-20T15:32:14.643Z,27.1
2022-08-20T15:42:15.017Z,26.3
2022-08-20T15:52:15.281Z,27.1
2022-08-20T16:12:16.719Z,25.3
2022-08-20T16:22:17.029Z,24.9
2022-08-20T16:32:17.460Z,24.7
2022-08-20T17:02:19.548Z,24.8
2022-08-20T17:12:19.838Z,24.7
2022-08-20T17:22:20.639Z,24.3
2022-08-20T17:32:21.424Z,24.2
2022-08-20T17:42:21.689Z,23.9
2022-08-20T17:52:22.014Z,23.7
2022-08-20T18:02:22.289Z,23.6
2022-08-20T18:12:32.900Z,23.5
2022-08-20T18:22:23.073Z,23.5
2022-08-20T18:32:23.579Z,23.3
2022-08-20T18:42:24.393Z,23.1
2022-08-20T18:52:25.249Z,22.9
2022-08-20T19:02:26.289Z,22.7
2022-08-20T19:12:27.047Z,22.5
2022-08-20T19:22:27.416Z,22.3
2022-08-20T19:32:28.226Z,22.1
2022-08-20T19:42:28.389Z,21.8
2022-08-20T19:52:28.697Z,21.5
2022-08-20T20:02:29.710Z,21.2
2022-08-20T20:12:29.976Z,21
2022-08-20T20:32:30.881Z,20.5
2022-08-20T20:42:31.607Z,20.3
2022-08-20T21:02:32.548Z,19.8
2022-08-20T21:12:33.548Z,19.7
2022-08-20T21:22:34.430Z,19.6
2022-08-20T21:32:35.052Z,19.4
2022-08-20T21:42:36.889Z,19.3
2022-08-20T21:52:36.186Z,19.2
2022-08-20T22:12:37.393Z,18.8
2022-08-20T22:22:37.817Z,18.2
2022-08-20T22:32:52.219Z,17.8
2022-08-20T22:42:38.739Z,17.6
2022-08-20T22:52:39.342Z,17.4
2022-08-20T23:02:39.656Z,17.4
2022-08-20T23:12:40.224Z,17.4
2022-08-20T23:22:40.838Z,17.3
2022-08-20T23:32:41.086Z,17.2
2022-08-20T23:42:42.165Z,17
2022-08-20T23:52:42.619Z,17
